createdAt,value
2016-12-24T00:00:25.098Z,24.17
2016-12-24T00:01:25.465Z,24.38
2016-12-24T00:02:25.425Z,24.28
2016-12-24T00:03:25.430Z,24.09
2016-12-24T00:04:25.127Z,24.28
2016-12-24T00:05:25.443Z,24.09
2016-12-24T00:06:25.450Z,24.57
2016-12-24T00:07:25.194Z,24.56
2016-12-24T00:08:25.465Z,24.46
2016-12-24T00:09:26.570Z,24.09
2016-12-24T00:10:25.477Z,23.99
2016-12-24T00:11:25.272Z,24.08
2016-12-24T00:12:25.179Z,24.46
2016-12-24T00:13:25.500Z,24.56
2016-12-24T00:14:25.194Z,24.56
2016-12-24T00:15:25.514Z,24.57
2016-12-24T00:16:25.207Z,24.46
2016-12-24T00:17:25.578Z,24.46
2016-12-24T00:18:25.221Z,24.56
2016-12-24T00:19:25.544Z,24.46
2016-12-24T00:20:25.901Z,24.37
2016-12-24T00:21:25.242Z,24.56
2016-12-24T00:22:25.561Z,24.46
2016-12-24T00:23:25.568Z,24.66
2016-12-24T00:24:25.575Z,24.08
2016-12-24T00:25:25.318Z,24.46
2016-12-24T00:26:25.640Z,24.46
2016-12-24T00:27:25.332Z,24.08
2016-12-24T00:28:25.602Z,23.88
2016-12-24T00:29:25.295Z,24.17
2016-12-24T00:30:25.614Z,24.17
2016-12-24T00:31:25.457Z,24.37
2016-12-24T00:32:25.364Z,24.46
2016-12-24T00:33:26.592Z,24.08
2016-12-24T00:34:25.644Z,24.08
2016-12-24T00:35:25.650Z,24.09
2016-12-24T00:36:25.348Z,24.56
2016-12-24T00:37:25.661Z,24.17
2016-12-24T00:38:25.356Z,24.46
2016-12-24T00:39:25.674Z,24.37
2016-12-24T00:40:25.734Z,24.17
2016-12-24T00:41:25.425Z,24.27
2016-12-24T00:42:25.697Z,24.27
2016-12-24T00:43:25.387Z,24.08
2016-12-24T00:44:25.397Z,24.27
2016-12-24T00:45:25.726Z,24.17
2016-12-24T00:46:25.408Z,24.08
2016-12-24T00:47:25.469Z,24.37
2016-12-24T00:48:25.736Z,24.27
2016-12-24T00:49:25.431Z,24.46
2016-12-24T00:50:25.438Z,24.27
2016-12-24T00:51:25.521Z,24.27
2016-12-24T00:52:25.451Z,24.48
2016-12-24T00:53:25.775Z,24.37
2016-12-24T00:54:25.777Z,24.27
2016-12-24T00:55:26.636Z,24.08
2016-12-24T00:56:25.529Z,23.88
2016-12-24T00:57:25.486Z,23.98
2016-12-24T00:58:25.538Z,23.9
2016-12-24T00:59:25.811Z,23.98
2016-12-24T01:00:25.817Z,23.9
2016-12-24T01:01:25.559Z,23.99
2016-12-24T01:02:25.518Z,24.37
2016-12-24T01:03:25.521Z,24.28
2016-12-24T01:04:25.580Z,23.9
2016-12-24T01:05:25.538Z,23.99
2016-12-24T01:06:26.960Z,23.98
2016-12-24T01:07:25.552Z,24.37
2016-12-24T01:08:25.871Z,24.27
2016-12-24T01:09:25.879Z,24.46
2016-12-24T01:10:25.885Z,24.28
2016-12-24T01:11:25.928Z,24.27
2016-12-24T01:12:25.898Z,24.27
2016-12-24T01:13:25.956Z,24.46
2016-12-24T01:14:25.911Z,24.46
2016-12-24T01:15:25.605Z,23.79
2016-12-24T01:16:25.617Z,24.46
2016-12-24T01:17:26.572Z,23.79
2016-12-24T01:18:25.989Z,24.38
2016-12-24T01:19:25.999Z,24.27
2016-12-24T01:20:25.954Z,23.9
2016-12-24T01:21:25.746Z,24.46
2016-12-24T01:22:25.652Z,24.38
2016-12-24T01:23:26.023Z,23.98
2016-12-24T01:24:25.669Z,23.98
2016-12-24T01:25:25.673Z,23.99
2016-12-24T01:26:26.020Z,24.46
2016-12-24T01:27:25.997Z,24.37
2016-12-24T01:28:26.742Z,24.17
2016-12-24T01:29:26.013Z,24.27
2016-12-24T01:30:26.020Z,24.17
2016-12-24T01:31:26.022Z,23.79
2016-12-24T01:32:25.720Z,24.46
2016-12-24T01:33:26.038Z,23.79
2016-12-24T01:34:25.783Z,23.88
2016-12-24T01:35:25.738Z,24.46
2016-12-24T01:36:25.796Z,24.17
2016-12-24T01:37:26.066Z,24.37
2016-12-24T01:38:25.809Z,24.27
2016-12-24T01:39:26.530Z,24.57
2016-12-24T01:40:26.085Z,24.27
2016-12-24T01:41:25.784Z,24.17
2016-12-24T01:42:26.099Z,24.27
2016-12-24T01:43:26.711Z,24.37
2016-12-24T01:44:26.165Z,24.46
2016-12-24T01:45:26.170Z,24.46
2016-12-24T01:46:26.180Z,24.37
2016-12-24T01:47:26.184Z,24.37
2016-12-24T01:48:26.193Z,24.37
2016-12-24T01:49:25.834Z,24.37
2016-12-24T01:50:26.152Z,24.46
2016-12-24T01:51:26.208Z,24.27
2016-12-24T01:52:25.904Z,24.27
2016-12-24T01:53:26.171Z,24.46
2016-12-24T01:54:26.520Z,24.17
2016-12-24T01:55:25.927Z,24.46
2016-12-24T01:56:26.193Z,24.37
2016-12-24T01:57:26.248Z,24.37
2016-12-24T01:58:25.893Z,24.37
2016-12-24T01:59:26.263Z,24.37
2016-12-24T02:00:26.222Z,24.37
2016-12-24T02:01:26.244Z,24.27
2016-12-24T02:02:26.233Z,24.46
2016-12-24T02:03:27.214Z,24.37
2016-12-24T02:04:26.246Z,24.37
2016-12-24T02:05:26.554Z,24.46
2016-12-24T02:06:26.245Z,24.27
2016-12-24T02:07:26.265Z,24.17
2016-12-24T02:08:26.272Z,24.37
2016-12-24T02:09:26.325Z,24.37
2016-12-24T02:10:26.332Z,24.37
2016-12-24T02:11:26.341Z,24.37
2016-12-24T02:12:26.586Z,24.17
2016-12-24T02:13:25.993Z,24.27
2016-12-24T02:14:26.311Z,24.17
2016-12-24T02:15:26.367Z,24.27
2016-12-24T02:16:26.626Z,24.08
2016-12-24T02:17:26.334Z,24.17
2016-12-24T02:18:26.338Z,24.17
2016-12-24T02:19:26.344Z,24.27
2016-12-24T02:20:26.037Z,24.08
2016-12-24T02:21:26.410Z,24.17
2016-12-24T02:22:26.049Z,24.27
2016-12-24T02:23:26.422Z,24.17
2016-12-24T02:24:26.375Z,24.17
2016-12-24T02:25:27.221Z,24.08
2016-12-24T02:26:26.390Z,24.08
2016-12-24T02:27:26.436Z,24.37
2016-12-24T02:28:26.403Z,24.17
2016-12-24T02:29:26.149Z,24.17
2016-12-24T02:30:26.416Z,24.08
2016-12-24T02:31:26.427Z,24.56
2016-12-24T02:32:26.168Z,24.37
2016-12-24T02:33:26.177Z,24.46
2016-12-24T02:34:26.493Z,24.46
2016-12-24T02:35:26.141Z,24.46
2016-12-24T02:36:26.460Z,24.46
2016-12-24T02:37:26.463Z,24.56
2016-12-24T02:38:26.156Z,24.46
2016-12-24T02:39:26.527Z,24.27
2016-12-24T02:40:27.426Z,24.27
2016-12-24T02:41:26.540Z,24.56
2016-12-24T02:42:26.496Z,24.46
2016-12-24T02:43:26.555Z,24.46
2016-12-24T02:44:26.195Z,24.46
2016-12-24T02:45:26.203Z,24.17
2016-12-24T02:46:26.573Z,24.37
2016-12-24T02:47:26.214Z,24.27
2016-12-24T02:48:26.223Z,24.37
2016-12-24T02:49:26.630Z,24.66
2016-12-24T02:50:26.549Z,24.56
2016-12-24T02:51:26.558Z,24.56
2016-12-24T02:52:26.563Z,24.55
2016-12-24T02:53:26.257Z,24.66
2016-12-24T02:54:26.314Z,24.55
2016-12-24T02:55:26.632Z,24.56
2016-12-24T02:56:26.621Z,24.65
2016-12-24T02:57:26.282Z,24.74
2016-12-24T02:58:26.293Z,24.65
2016-12-24T02:59:26.608Z,24.55
2016-12-24T03:00:26.304Z,24.55
2016-12-24T03:01:26.360Z,24.56
2016-12-24T03:02:26.317Z,24.56
2016-12-24T03:03:26.322Z,24.65
2016-12-24T03:04:26.691Z,24.55
2016-12-24T03:05:26.338Z,24.66
2016-12-24T03:06:26.658Z,24.56
2016-12-24T03:07:26.348Z,24.66
2016-12-24T03:08:26.721Z,24.46
2016-12-24T03:09:26.413Z,24.84
2016-12-24T03:10:26.366Z,24.65
2016-12-24T03:11:26.877Z,24.74
2016-12-24T03:12:26.745Z,24.65
2016-12-24T03:13:26.702Z,24.65
2016-12-24T03:14:26.707Z,24.65
2016-12-24T03:15:26.402Z,24.65
2016-12-24T03:16:26.725Z,24.65
2016-12-24T03:17:26.774Z,24.74
2016-12-24T03:18:26.736Z,24.84
2016-12-24T03:19:26.739Z,24.65
2016-12-24T03:20:26.748Z,24.65
2016-12-24T03:21:26.441Z,24.66
2016-12-24T03:22:26.500Z,24.56
2016-12-24T03:23:26.511Z,24.66
2016-12-24T03:24:27.877Z,24.65
2016-12-24T03:25:26.469Z,24.74
2016-12-24T03:26:26.676Z,24.84
2016-12-24T03:27:26.796Z,24.66
2016-12-24T03:28:26.853Z,24.66
2016-12-24T03:29:26.859Z,24.66
2016-12-24T03:30:26.551Z,24.66
2016-12-24T03:31:26.508Z,24.45
2016-12-24T03:32:26.617Z,24.55
2016-12-24T03:33:26.835Z,24.55
2016-12-24T03:34:26.892Z,24.65
2016-12-24T03:35:27.848Z,24.85
2016-12-24T03:36:26.541Z,24.55
2016-12-24T03:37:26.598Z,24.55
2016-12-24T03:38:26.867Z,24.84
2016-12-24T03:39:26.924Z,24.84
2016-12-24T03:40:26.569Z,24.84
2016-12-24T03:41:26.575Z,24.84
2016-12-24T03:42:26.581Z,24.93
2016-12-24T03:43:26.899Z,25.13
2016-12-24T03:44:26.959Z,24.93
2016-12-24T03:45:26.940Z,24.93
2016-12-24T03:46:27.520Z,24.93
2016-12-24T03:47:26.662Z,24.74
2016-12-24T03:48:26.621Z,25.13
2016-12-24T03:49:26.945Z,24.84
2016-12-24T03:50:26.687Z,24.65
2016-12-24T03:51:26.645Z,24.93
2016-12-24T03:52:27.011Z,24.65
2016-12-24T03:53:26.658Z,24.74
2016-12-24T03:54:27.027Z,24.93
2016-12-24T03:55:27.029Z,24.74
2016-12-24T03:56:26.988Z,25.03
2016-12-24T03:57:27.851Z,24.93
2016-12-24T03:58:41.564Z,25.13
2016-12-24T03:59:26.747Z,25.13
2016-12-24T04:00:27.011Z,24.93
2016-12-24T04:01:27.021Z,25.03
2016-12-24T04:02:26.717Z,25.03
2016-12-24T04:03:27.034Z,25.03
2016-12-24T04:04:26.778Z,25.03
2016-12-24T04:05:26.731Z,24.93
2016-12-24T04:06:27.053Z,25.03
2016-12-24T04:07:27.063Z,25.03
2016-12-24T04:08:27.613Z,25.03
2016-12-24T04:09:26.762Z,24.93
2016-12-24T04:10:27.079Z,24.93
2016-12-24T04:11:26.775Z,25.03
2016-12-24T04:12:27.895Z,24.93
2016-12-24T04:13:27.100Z,25.03
2016-12-24T04:14:26.793Z,25.03
2016-12-24T04:15:27.163Z,25.03
2016-12-24T04:16:27.118Z,24.93
2016-12-24T04:17:27.128Z,25.03
2016-12-24T04:18:26.871Z,24.93
2016-12-24T04:19:27.138Z,24.93
2016-12-24T04:20:27.199Z,24.93
2016-12-24T04:21:27.702Z,25.03
2016-12-24T04:22:26.843Z,25.03
2016-12-24T04:23:27.916Z,24.93
2016-12-24T04:24:27.174Z,25.03
2016-12-24T04:25:27.179Z,25.13
2016-12-24T04:26:27.184Z,25.03
2016-12-24T04:27:26.881Z,25.13
2016-12-24T04:28:26.884Z,24.93
2016-12-24T04:29:27.254Z,25.13
2016-12-24T04:30:27.213Z,25.03
2016-12-24T04:31:26.958Z,25.03
2016-12-24T04:32:27.223Z,25.03
2016-12-24T04:33:26.918Z,25.03
2016-12-24T04:34:27.690Z,25.03
2016-12-24T04:35:26.928Z,25.03
2016-12-24T04:36:26.987Z,25.03
2016-12-24T04:37:27.256Z,25.03
2016-12-24T04:38:26.951Z,24.84
2016-12-24T04:39:26.959Z,24.93
2016-12-24T04:40:27.326Z,24.93
2016-12-24T04:41:27.329Z,24.93
2016-12-24T04:42:27.289Z,25.03
2016-12-24T04:43:27.295Z,25.03
2016-12-24T04:44:27.301Z,24.93
2016-12-24T04:45:27.346Z,24.93
2016-12-24T04:46:27.364Z,24.93
2016-12-24T04:47:27.372Z,24.93
2016-12-24T04:48:27.326Z,25.03
2016-12-24T04:49:27.333Z,24.93
2016-12-24T04:50:27.424Z,25.03
2016-12-24T04:51:27.346Z,25.03
2016-12-24T04:52:27.353Z,24.93
2016-12-24T04:53:27.100Z,24.93
2016-12-24T04:54:28.473Z,24.93
2016-12-24T04:55:27.114Z,25.03
2016-12-24T04:56:27.379Z,24.93
2016-12-24T04:57:27.386Z,25.03
2016-12-24T04:58:28.560Z,24.93
2016-12-24T04:59:27.136Z,25.03
2016-12-24T05:00:27.094Z,25.03
2016-12-24T05:01:27.414Z,25.03
2016-12-24T05:02:27.208Z,25.03
2016-12-24T05:03:27.426Z,25.03
2016-12-24T05:04:27.485Z,25.03
2016-12-24T05:05:27.127Z,24.93
2016-12-24T05:06:27.446Z,25.03
2016-12-24T05:07:27.450Z,25.03
2016-12-24T05:08:27.460Z,25.03
2016-12-24T05:09:28.507Z,25.03
2016-12-24T05:10:27.474Z,24.93
2016-12-24T05:11:27.477Z,24.93
2016-12-24T05:12:27.486Z,24.93
2016-12-24T05:13:27.228Z,24.93
2016-12-24T05:14:27.499Z,24.93
2016-12-24T05:15:27.509Z,25.03
2016-12-24T05:16:27.511Z,24.93
2016-12-24T05:17:27.206Z,24.93
2016-12-24T05:18:27.212Z,24.93
2016-12-24T05:19:27.533Z,25.23
2016-12-24T05:20:28.387Z,25.32
2016-12-24T05:21:27.546Z,24.93
2016-12-24T05:22:27.603Z,24.93
2016-12-24T05:23:27.608Z,25.32
2016-12-24T05:24:27.299Z,25.23
2016-12-24T05:25:27.260Z,24.93
2016-12-24T05:26:27.315Z,25.03
2016-12-24T05:27:27.633Z,25.03
2016-12-24T05:28:27.327Z,25.03
2016-12-24T05:29:27.597Z,25.23
2016-12-24T05:30:27.289Z,24.93
2016-12-24T05:31:28.404Z,25.23
2016-12-24T05:32:27.355Z,25.13
2016-12-24T05:33:27.670Z,25.23
2016-12-24T05:34:27.316Z,25.23
2016-12-24T05:35:27.622Z,25.23
2016-12-24T05:36:27.645Z,25.13
2016-12-24T05:37:27.651Z,24.84
2016-12-24T05:38:27.655Z,25.13
2016-12-24T05:39:27.664Z,25.03
2016-12-24T05:40:27.410Z,25.32
2016-12-24T05:41:27.679Z,25.03
2016-12-24T05:42:28.382Z,25.13
2016-12-24T05:43:27.372Z,25.32
2016-12-24T05:44:27.383Z,25.13
2016-12-24T05:45:27.390Z,25.23
2016-12-24T05:46:27.446Z,25.23
2016-12-24T05:47:27.398Z,25.13
2016-12-24T05:48:27.405Z,25.23
2016-12-24T05:49:27.728Z,25.23
2016-12-24T05:50:27.520Z,25.23
2016-12-24T05:51:27.739Z,25.32
2016-12-24T05:52:27.484Z,25.03
2016-12-24T05:53:27.890Z,25.13
2016-12-24T05:54:27.811Z,25.23
2016-12-24T05:55:27.506Z,25.23
2016-12-24T05:56:27.776Z,25.03
2016-12-24T05:57:27.465Z,25.03
2016-12-24T05:58:28.134Z,25.13
2016-12-24T05:59:27.480Z,25.32
2016-12-24T06:00:27.486Z,25.03
2016-12-24T06:01:27.804Z,25.13
2016-12-24T06:02:27.497Z,24.93
2016-12-24T06:03:27.507Z,25.03
2016-12-24T06:04:28.363Z,25.03
2016-12-24T06:05:27.519Z,25.03
2016-12-24T06:06:27.887Z,25.03
2016-12-24T06:07:27.632Z,25.03
2016-12-24T06:08:27.853Z,25.61
2016-12-24T06:09:27.542Z,25.13
2016-12-24T06:10:27.862Z,25.03
2016-12-24T06:11:27.871Z,24.93
2016-12-24T06:12:27.565Z,25.13
2016-12-24T06:13:27.883Z,25.13
2016-12-24T06:14:27.576Z,25.03
2016-12-24T06:15:28.147Z,25.61
2016-12-24T06:16:27.901Z,25.03
2016-12-24T06:17:28.881Z,25.13
2016-12-24T06:18:27.603Z,25.12
2016-12-24T06:19:27.973Z,25.13
2016-12-24T06:20:27.614Z,25.13
2016-12-24T06:21:27.986Z,25.03
2016-12-24T06:22:27.942Z,25.03
2016-12-24T06:23:27.974Z,25.51
2016-12-24T06:24:27.690Z,25.51
2016-12-24T06:25:27.959Z,25.51
2016-12-24T06:26:27.958Z,25.03
2016-12-24T06:27:27.975Z,25.23
2016-12-24T06:28:27.980Z,24.92
2016-12-24T06:29:27.989Z,25.51
2016-12-24T06:30:27.679Z,25.51
2016-12-24T06:31:28.002Z,25.13
2016-12-24T06:32:27.695Z,25.51
2016-12-24T06:33:27.698Z,25.13
2016-12-24T06:34:28.020Z,25.51
2016-12-24T06:35:27.709Z,25.51
2016-12-24T06:36:27.718Z,25.51
2016-12-24T06:37:28.038Z,25.5
2016-12-24T06:38:28.046Z,25.51
2016-12-24T06:39:29.053Z,25.42
2016-12-24T06:40:27.849Z,25.03
2016-12-24T06:41:27.901Z,25.42
2016-12-24T06:42:27.760Z,25.51
2016-12-24T06:43:28.077Z,25.51
2016-12-24T06:44:27.771Z,25.31
2016-12-24T06:45:27.829Z,25.42
2016-12-24T06:46:27.836Z,25.32
2016-12-24T06:47:27.843Z,25.42
2016-12-24T06:48:28.110Z,25.32
2016-12-24T06:49:28.116Z,25.32
2016-12-24T06:50:28.988Z,25.21
2016-12-24T06:51:27.816Z,25.31
2016-12-24T06:52:28.187Z,25.12
2016-12-24T06:53:28.144Z,25.31
2016-12-24T06:54:27.835Z,25.03
2016-12-24T06:55:28.157Z,25.31
2016-12-24T06:56:27.848Z,25.31
2016-12-24T06:57:28.169Z,25.31
2016-12-24T06:58:28.178Z,25.23
2016-12-24T06:59:28.293Z,25.21
2016-12-24T07:00:28.237Z,25.31
2016-12-24T07:01:29.005Z,25.4
2016-12-24T07:02:27.886Z,25.4
2016-12-24T07:03:28.306Z,25.13
2016-12-24T07:04:27.901Z,25.21
2016-12-24T07:05:28.224Z,25.12
2016-12-24T07:06:27.916Z,25.02
2016-12-24T07:07:27.921Z,25.32
2016-12-24T07:08:27.977Z,25.31
2016-12-24T07:09:28.247Z,25.31
2016-12-24T07:10:27.940Z,25.31
2016-12-24T07:11:27.945Z,25.23
2016-12-24T07:12:29.351Z,25.12
2016-12-24T07:13:28.009Z,25.12
2016-12-24T07:14:27.966Z,25.21
2016-12-24T07:15:27.970Z,25.32
2016-12-24T07:16:28.292Z,25.31
2016-12-24T07:17:28.349Z,25.32
2016-12-24T07:18:28.304Z,25.32
2016-12-24T07:19:28.310Z,25.32
2016-12-24T07:20:28.008Z,25.31
2016-12-24T07:21:28.322Z,25.32
2016-12-24T07:22:28.383Z,25.32
2016-12-24T07:23:29.287Z,25.21
2016-12-24T07:24:28.393Z,25.31
2016-12-24T07:25:28.288Z,25.13
2016-12-24T07:26:28.092Z,25.12
2016-12-24T07:27:28.151Z,25.12
2016-12-24T07:28:28.368Z,25.4
2016-12-24T07:29:28.426Z,25.32
2016-12-24T07:30:28.070Z,25.31
2016-12-24T07:31:28.389Z,25.31
2016-12-24T07:32:28.394Z,25.21
2016-12-24T07:33:28.451Z,25.4
2016-12-24T07:34:28.458Z,25.23
2016-12-24T07:35:28.103Z,24.93
2016-12-24T07:36:28.111Z,24.65
2016-12-24T07:37:28.431Z,24.35
2016-12-24T07:38:29.122Z,24.37
2016-12-24T07:39:28.127Z,24.08
2016-12-24T07:40:28.185Z,24.08
2016-12-24T07:41:28.552Z,23.41
2016-12-24T07:42:28.197Z,23.12
2016-12-24T07:43:28.527Z,23.33
2016-12-24T07:44:28.471Z,23.33
2016-12-24T07:45:28.480Z,22.84
2016-12-24T07:46:28.487Z,22.84
2016-12-24T07:47:28.493Z,22.65
2016-12-24T07:48:28.499Z,22.27
2016-12-24T07:49:29.305Z,21.98
2016-12-24T07:50:28.248Z,21.98
2016-12-24T07:51:28.517Z,21.98
2016-12-24T07:52:28.211Z,22.17
2016-12-24T07:53:28.532Z,22.17
2016-12-24T07:54:28.536Z,22.08
2016-12-24T07:55:28.592Z,22.38
2016-12-24T07:56:28.595Z,22.19
2016-12-24T07:57:28.293Z,21.7
2016-12-24T07:59:28.571Z,21.61
2016-12-24T08:00:28.713Z,21.7
2016-12-24T08:01:28.581Z,21.51
2016-12-24T08:02:28.327Z,21.51
2016-12-24T08:03:28.281Z,21.51
2016-12-24T08:04:28.656Z,21.71
2016-12-24T08:05:28.345Z,21.42
2016-12-24T08:06:28.664Z,21.42
2016-12-24T08:07:28.620Z,21.23
2016-12-24T08:08:28.629Z,21.71
2016-12-24T08:09:28.322Z,21.33
2016-12-24T08:10:28.693Z,21.71
2016-12-24T08:11:29.199Z,21.42
2016-12-24T08:12:28.654Z,21.23
2016-12-24T08:13:28.712Z,20.74
2016-12-24T08:14:28.669Z,20.74
2016-12-24T08:15:28.411Z,20.74
2016-12-24T08:16:28.418Z,21.33
2016-12-24T08:17:28.687Z,21.51
2016-12-24T08:18:28.696Z,21.03
2016-12-24T08:19:28.442Z,20.94
2016-12-24T08:20:28.444Z,21.13
2016-12-24T08:21:28.402Z,21.13
2016-12-24T08:22:29.225Z,20.84
2016-12-24T08:23:28.413Z,21.03
2016-12-24T08:24:28.471Z,21.03
2016-12-24T08:25:28.428Z,20.94
2016-12-24T08:26:28.436Z,21.03
2016-12-24T08:27:28.805Z,21.03
2016-12-24T08:28:28.501Z,21.13
2016-12-24T08:29:28.507Z,20.94
2016-12-24T08:30:28.464Z,21.13
2016-12-24T08:31:28.832Z,21.14
2016-12-24T08:32:28.475Z,20.94
2016-12-24T08:33:29.285Z,21.03
2016-12-24T08:34:28.491Z,20.95
2016-12-24T08:35:28.809Z,21.13
2016-12-24T08:36:28.870Z,21.14
2016-12-24T08:37:28.875Z,21.23
2016-12-24T08:38:28.515Z,21.23
2016-12-24T08:39:28.838Z,21.13
2016-12-24T08:40:28.845Z,20.85
2016-12-24T08:41:28.902Z,21.23
2016-12-24T08:42:28.908Z,20.94
2016-12-24T08:43:28.865Z,20.95
2016-12-24T08:44:29.123Z,20.84
2016-12-24T08:45:28.929Z,21.03
2016-12-24T08:46:28.887Z,20.95
2016-12-24T08:47:28.890Z,20.74
2016-12-24T08:48:28.587Z,21.14
2016-12-24T08:49:28.595Z,21.03
2016-12-24T08:50:28.600Z,20.94
2016-12-24T08:51:28.923Z,21.14
2016-12-24T08:52:28.664Z,20.85
2016-12-24T08:53:28.936Z,21.03
2016-12-24T08:54:28.990Z,21.14
2016-12-24T08:55:28.953Z,21.04
2016-12-24T08:56:28.955Z,21.04
2016-12-24T08:57:28.698Z,20.95
2016-12-24T08:58:28.657Z,21.33
2016-12-24T08:59:28.977Z,21.14
2016-12-24T09:00:28.721Z,20.95
2016-12-24T09:01:28.988Z,21.14
2016-12-24T09:02:28.783Z,21.14
2016-12-24T09:03:28.692Z,21.04
2016-12-24T09:04:28.697Z,20.95
2016-12-24T09:05:29.018Z,21.04
2016-12-24T09:06:29.023Z,20.95
2016-12-24T09:07:28.719Z,21.04
2016-12-24T09:08:30.087Z,21.14
2016-12-24T09:09:29.044Z,20.85
2016-12-24T09:10:29.051Z,21.24
2016-12-24T09:11:28.744Z,21.14
2016-12-24T09:12:29.065Z,20.65
2016-12-24T09:13:28.763Z,20.85
2016-12-24T09:14:29.180Z,21.04
2016-12-24T09:15:28.771Z,21.04
2016-12-24T09:16:29.099Z,21.14
2016-12-24T09:17:29.102Z,21.04
2016-12-24T09:18:29.158Z,21.62
2016-12-24T09:19:29.965Z,20.95
2016-12-24T09:20:29.174Z,20.95
2016-12-24T09:21:29.131Z,21.04
2016-12-24T09:22:28.821Z,20.95
2016-12-24T09:23:29.141Z,20.95
2016-12-24T09:24:29.149Z,21.24
2016-12-24T09:25:29.849Z,21.04
2016-12-24T09:26:29.211Z,20.95
2016-12-24T09:27:29.172Z,21.04
2016-12-24T09:28:29.177Z,21.14
2016-12-24T09:29:29.236Z,21.04
2016-12-24T09:30:29.178Z,20.95
2016-12-24T09:31:29.206Z,20.75
2016-12-24T09:32:29.207Z,21.04
2016-12-24T09:33:29.212Z,21.04
2016-12-24T09:34:29.273Z,21.14
2016-12-24T09:35:28.914Z,21.04
2016-12-24T09:36:28.922Z,20.85
2016-12-24T09:37:28.926Z,20.95
2016-12-24T09:38:29.299Z,21.14
2016-12-24T09:39:29.261Z,21.14
2016-12-24T09:40:28.949Z,21.04
2016-12-24T09:41:29.760Z,21.14
2016-12-24T09:42:29.325Z,20.95
2016-12-24T09:43:28.971Z,20.95
2016-12-24T09:44:29.293Z,20.85
2016-12-24T09:45:28.984Z,20.85
2016-12-24T09:46:29.306Z,20.75
2016-12-24T09:47:29.315Z,21.04
2016-12-24T09:48:29.058Z,21.04
2016-12-24T09:49:29.062Z,21.04
2016-12-24T09:50:29.334Z,21.14
2016-12-24T09:51:29.024Z,21.14
2016-12-24T09:52:29.596Z,21.24
2016-12-24T09:53:29.408Z,21.04
2016-12-24T09:54:30.388Z,21.04
2016-12-24T09:55:29.571Z,21.04
2016-12-24T09:56:29.813Z,21.14
2016-12-24T09:57:29.070Z,20.95
2016-12-24T09:58:43.956Z,21.04
2016-12-24T09:59:29.398Z,20.95
2016-12-24T10:00:29.403Z,20.95
2016-12-24T10:01:29.411Z,21.14
2016-12-24T10:02:29.154Z,21.04
2016-12-24T10:03:29.114Z,20.85
2016-12-24T10:04:29.120Z,21.04
2016-12-24T10:05:29.176Z,20.85
2016-12-24T10:06:29.134Z,21.14
2016-12-24T10:07:29.339Z,21.14
2016-12-24T10:08:29.148Z,21.04
2016-12-24T10:09:29.155Z,21.14
2016-12-24T10:10:29.161Z,21.14
2016-12-24T10:11:29.481Z,21.62
2016-12-24T10:12:29.226Z,21.24
2016-12-24T10:13:29.181Z,21.04
2016-12-24T10:14:29.190Z,21.14
2016-12-24T10:15:29.510Z,21.14
2016-12-24T10:16:30.641Z,21.04
2016-12-24T10:17:29.575Z,20.75
2016-12-24T10:18:29.632Z,20.95
2016-12-24T10:19:29.538Z,21.14
2016-12-24T10:20:29.546Z,20.85
2016-12-24T10:21:29.604Z,21.24
2016-12-24T10:22:29.561Z,20.95
2016-12-24T10:23:29.568Z,20.85
2016-12-24T10:24:29.263Z,20.95
2016-12-24T10:25:29.630Z,20.86
2016-12-24T10:26:29.325Z,21.05
2016-12-24T10:27:30.517Z,20.86
2016-12-24T10:28:29.607Z,21.04
2016-12-24T10:29:29.609Z,20.86
2016-12-24T10:30:29.667Z,21.15
2016-12-24T10:31:29.623Z,21.04
2016-12-24T10:32:29.683Z,20.85
2016-12-24T10:33:29.328Z,20.95
2016-12-24T10:34:29.646Z,20.96
2016-12-24T10:35:29.390Z,21.25
2016-12-24T10:36:29.659Z,21.24
2016-12-24T10:37:29.405Z,21.24
2016-12-24T10:38:30.161Z,21.72
2016-12-24T10:39:29.680Z,21.33
2016-12-24T10:40:29.690Z,21.14
2016-12-24T10:41:29.698Z,21.33
2016-12-24T10:42:30.574Z,20.96
2016-12-24T10:43:29.761Z,21.05
2016-12-24T10:44:29.905Z,21.05
2016-12-24T10:45:29.783Z,20.86
2016-12-24T10:46:29.780Z,21.04
2016-12-24T10:47:29.474Z,21.04
2016-12-24T10:48:29.799Z,21.14
2016-12-24T10:49:29.493Z,21.14
2016-12-24T10:50:29.447Z,21.24
2016-12-24T10:51:29.766Z,21.14
2016-12-24T10:52:29.462Z,20.96
2016-12-24T10:53:30.117Z,20.96
2016-12-24T10:54:29.891Z,20.96
2016-12-24T10:55:29.801Z,21.05
2016-12-24T10:56:29.854Z,21.05
2016-12-24T10:57:29.861Z,20.86
2016-12-24T10:58:29.816Z,20.95
2016-12-24T10:59:29.513Z,21.14
2016-12-24T11:00:29.884Z,21.05
2016-12-24T11:01:29.890Z,21.05
2016-12-24T11:02:29.533Z,20.96
2016-12-24T11:03:29.904Z,20.76
2016-12-24T11:04:29.552Z,21.05
2016-12-24T11:05:29.869Z,20.76
2016-12-24T11:06:29.874Z,21.05
2016-12-24T11:07:29.570Z,21.04
2016-12-24T11:08:29.925Z,20.86
2016-12-24T11:09:29.897Z,20.96
2016-12-24T11:10:29.907Z,20.96
2016-12-24T11:11:29.913Z,20.86
2016-12-24T11:12:29.917Z,20.96
2016-12-24T11:13:29.975Z,21.05
2016-12-24T11:14:29.935Z,21.05
2016-12-24T11:15:30.826Z,20.96
2016-12-24T11:16:29.635Z,21.15
2016-12-24T11:17:30.004Z,21.15
2016-12-24T11:18:29.963Z,20.96
2016-12-24T11:19:29.665Z,21.15
2016-12-24T11:20:30.027Z,21.05
2016-12-24T11:21:30.032Z,20.86
2016-12-24T11:22:29.995Z,20.86
2016-12-24T11:23:30.000Z,20.86
2016-12-24T11:24:29.742Z,20.76
2016-12-24T11:25:29.704Z,20.96
2016-12-24T11:26:30.920Z,21.05
2016-12-24T11:27:30.032Z,20.86
2016-12-24T11:28:30.037Z,21.15
2016-12-24T11:29:30.042Z,21.05
2016-12-24T11:30:29.786Z,20.96
2016-12-24T11:31:29.797Z,21.15
2016-12-24T11:32:30.062Z,21.05
2016-12-24T11:33:29.805Z,21.05
2016-12-24T11:34:30.131Z,21.15
2016-12-24T11:35:30.138Z,20.96
2016-12-24T11:36:30.092Z,20.76
2016-12-24T11:37:30.599Z,20.86
2016-12-24T11:38:29.799Z,20.96
2016-12-24T11:39:30.165Z,20.86
2016-12-24T11:40:30.126Z,21.25
2016-12-24T11:41:30.177Z,21.34
2016-12-24T11:42:29.824Z,21.15
2016-12-24T11:43:30.145Z,21.54
2016-12-24T11:44:30.136Z,21.54
2016-12-24T11:45:29.848Z,21.54
2016-12-24T11:46:30.214Z,21.54
2016-12-24T11:47:30.222Z,20.86
2016-12-24T11:48:30.676Z,21.15
2016-12-24T11:49:30.182Z,21.34
2016-12-24T11:50:30.244Z,20.86
2016-12-24T11:51:30.198Z,21.44
2016-12-24T11:52:29.943Z,21.44
2016-12-24T11:53:29.953Z,21.44
2016-12-24T11:54:30.269Z,21.15
2016-12-24T11:55:29.914Z,21.34
2016-12-24T11:56:30.283Z,21.54
2016-12-24T11:57:29.929Z,21.44
2016-12-24T11:58:29.987Z,21.44
2016-12-24T11:59:30.856Z,21.43
2016-12-24T12:00:30.269Z,21.44
2016-12-24T12:01:30.274Z,21.44
2016-12-24T12:02:30.336Z,21.62
2016-12-24T12:03:30.280Z,21.44
2016-12-24T12:04:29.976Z,21.62
2016-12-24T12:05:30.299Z,21.44
2016-12-24T12:06:30.303Z,21.72
2016-12-24T12:07:30.047Z,21.34
2016-12-24T12:08:30.417Z,21.54
2016-12-24T12:09:30.018Z,21.73
2016-12-24T12:10:30.883Z,21.73
2016-12-24T12:11:30.345Z,21.64
2016-12-24T12:12:30.346Z,21.73
2016-12-24T12:13:30.407Z,21.73
2016-12-24T12:14:30.099Z,21.64
2016-12-24T12:15:30.418Z,21.83
2016-12-24T12:16:30.376Z,21.64
2016-12-24T12:17:30.434Z,21.34
2016-12-24T12:18:30.390Z,21.83
2016-12-24T12:19:30.696Z,21.54
2016-12-24T12:20:30.141Z,21.44
2016-12-24T12:21:31.014Z,21.64
2016-12-24T12:22:30.425Z,21.73
2016-12-24T12:23:30.428Z,21.54
2016-12-24T12:24:30.435Z,21.83
2016-12-24T12:25:31.342Z,21.83
2016-12-24T12:26:30.448Z,21.73
2016-12-24T12:27:30.459Z,21.64
2016-12-24T12:28:30.513Z,21.83
2016-12-24T12:29:30.160Z,21.73
2016-12-24T12:30:30.525Z,21.73
2016-12-24T12:31:30.222Z,21.73
2016-12-24T12:32:30.491Z,21.73
2016-12-24T12:33:30.236Z,21.54
2016-12-24T12:34:30.507Z,21.83
2016-12-24T12:35:30.564Z,21.73
2016-12-24T12:36:31.159Z,21.64
2016-12-24T12:37:30.577Z,21.83
2016-12-24T12:38:30.223Z,21.82
2016-12-24T12:39:30.542Z,22.02
2016-12-24T12:40:30.386Z,22.22
2016-12-24T12:41:30.604Z,21.83
2016-12-24T12:42:30.251Z,21.73
2016-12-24T12:43:30.621Z,21.73
2016-12-24T12:44:30.628Z,21.73
2016-12-24T12:45:30.584Z,22.02
2016-12-24T12:46:30.642Z,21.83
2016-12-24T12:47:30.287Z,22.12
2016-12-24T12:48:30.657Z,22.12
2016-12-24T12:49:30.914Z,22.02
2016-12-24T12:50:30.618Z,22.02
2016-12-24T12:51:30.313Z,21.83
2016-12-24T12:52:30.684Z,21.73
2016-12-24T12:53:30.329Z,21.93
2016-12-24T12:54:30.337Z,22.12